FARO weather

Rooiberg Airport
Rooiberg, Limpopo, South Africa

Public forecast

Using degrees Celsius for public forecast. Weather courtesy of forecast.io.

Closest aviation weather report (METAR) to Rooiberg Airport

Report is more than 6 hours old.

Closest report is Pilanesberg International Airport, 45.9 nm (85.0 km) SW. Retrieved 2020/01/20 11:00 UTC (3 days ago):

FAPN 201100Z 06005KT 9999 SCT035 27/17 Q1018

Closest aviation forecast (TAF) to Rooiberg Airport

Forecast is more than 12 hours old.

Closest forecast is Pilanesberg International Airport, 45.9 nm (85.0 km) SW. Retrieved 2017/05/23 04:01 UTC (3 years ago):

TAF FAPN 230300Z 2304/2315 VRB02KT CAVOK TX25/2312ZTN03/2304Z